• Join FlightAware (Why Join?)
  • Login
  • US Flag 
12:37AM EDT


 

Airport Tracker/Info


-or-


 

Live Flight TrackerFlight Track Log ✈ N946RM ✈ 19-Mar-2014 ✈ KMOB - KBHM

Flight Track Log - Related Links

Times and Time Zones

All times are in EDT time to prevent confusion due to time zone crossing. See the N946RM flight status page for this flight to view local times or setup timezone preferences in your user account.

Time Position Orientation Groundspeed Altitude Reporting Facility
EDT Latitude Longitude Course Direction KTS MPH feet Rate Location/Type
10:59PM 30.6614 -88.2108 58° Northeast 203 234 3,400  Level Houston Center
11:00PM 30.6900 -88.1422 64° Northeast 252 290 6,800 3,120 Climbing Houston Center
11:01PM 30.7403 -88.0781 48° Northeast 265 305 9,800 2,820 Climbing Houston Center
11:02PM 30.7942 -88.0072 48° Northeast 287 330 12,700 2,160 Climbing Houston Center
11:03PM 30.8661 -87.9108 49° Northeast 326 375 14,300 2,340 Climbing Houston Center
11:04PM 30.7002 -88.2265 58° Northeast  Level FlightAware Approximate
11:04PM 30.9306 -87.8400 43° Northeast 328 377 17,500  Level Houston Center
11:05PM 30.9983 -87.7764 39° Northeast 320 368 20,400 2,460 Climbing Houston Center
11:06PM 31.0683 -87.7131 38° Northeast 318 366 22,600 2,040 Climbing Houston Center
11:07PM 31.1469 -87.6408 38° Northeast 339 390 24,600 1,920 Climbing Houston Center
11:08PM 31.2308 -87.5625 39° Northeast 365 420 26,600 1,140 Climbing Houston Center
11:09PM 31.3217 -87.4858 36° Northeast 387 445 27,000 660 Climbing Houston Center
11:10PM 31.4600 -87.4439 15° North 417 480 28,000 480 Climbing Houston Center
11:11PM 31.5764 -87.4067 15° North 425 489 28,000  Level Houston Center
11:12PM 31.6950 -87.3683 15° North 434 499 28,000  Level Houston Center
11:13PM 31.8161 -87.3286 16° North 443 510 28,000  Level Houston Center
11:14PM 31.9356 -87.2903 15° North 446 513 28,000  Level Houston Center
11:15PM 32.0542 -87.2519 15° North 445 512 28,000  Level Houston Center
11:16PM 32.1733 -87.2131 15° North 445 512 28,000  Level Houston Center
11:17PM 32.2925 -87.1758 15° North 445 512 28,000 -420 Level Houston Center
11:18PM 32.4342 -87.1297 15° North 440 506 27,200  Descending Atlanta Center
11:19PM 32.5500 -87.0919 15° North 434 499 28,000 -1,020 Climbing Atlanta Center
11:20PM 32.6678 -87.0542 15° North 434 499 25,200 -2,160 Descending Atlanta Center
11:21PM 32.7836 -87.0136 16° North 439 505 23,700 -1,980 Descending Atlanta Center
11:22PM 32.8844 -86.9822 15° North 413 475 21,700 -2,100 Descending Atlanta Center
11:22PM 32.8911 -86.9753 41° Northeast 421 484 21,600 -2,280 Descending Atlanta Center
11:23PM 32.9644 -86.9553 13° North 388 447 19,900 -2,340 Descending Atlanta Center
11:23PM 32.9961 -86.9439 17° North 398 458 19,300 -2,100 Descending Atlanta Center
11:24PM 33.0614 -86.9214 16° North 366 421 17,800 -2,220 Descending Atlanta Center
11:24PM 33.0928 -86.9100 17° North 381 438 17,100 -2,340 Descending Atlanta Center
11:25PM 33.1664 -86.8900 13° North 320 368 15,200 -2,340 Descending Atlanta Center
11:25PM 33.1811 -86.8808 28° Northeast 347 399 14,800 -2,340 Descending Atlanta Center
11:26PM 33.2508 -86.8483 21° North 343 395 12,900 -2,340 Descending Atlanta Center
11:26PM 33.2658 -86.8339 39° Northeast 335 386 12,500 -2,280 Descending Atlanta Center
11:27PM 33.3272 -86.7886 32° Northeast 318 366 10,600 -2,700 Descending Atlanta Center
11:27PM 33.3486 -86.7717 33° Northeast 324 373 9,800 -3,240 Descending Atlanta Center
11:28PM 33.4100 -86.7314 29° Northeast 291 335 7,100 -3,000 Descending Atlanta Center
11:28PM 33.4186 -86.7242 35° Northeast 306 352 6,800 -2,760 Descending Atlanta Center
11:29PM 33.4778 -86.6886 27° Northeast 264 304 4,300 -2,700 Descending Atlanta Center
11:29PM 33.4861 -86.6814 36° Northeast 288 331 4,100 -1,320 Descending Atlanta Center
11:30PM 33.5328 -86.6506 29° Northeast 219 252 3,000 -1,140 Descending Atlanta Center
11:30PM 33.5414 -86.6458 25° Northeast 254 292 3,000 -300 Level Atlanta Center
11:31PM 33.5781 -86.6767 325° Northwest 172 198 2,700 -420 Descending Atlanta Center
11:31PM 33.5822 -86.6769 357° North 173 199 2,600 -1,320 Descending Atlanta Center
11:32PM 33.5858 -86.7144 277° West 126 145 1,500 -1,380 Descending Atlanta Center
11:34PM 33.5639 -86.7523 231° Southwest  Level Estimated
11:41PM 33.5639 -86.7523 231° Southwest  Level Estimated